createdAt,value
2022-10-12T00:01:17.646Z,6.95
2022-10-12T00:03:46.374Z,6.93
2022-10-12T00:06:17.923Z,6.92
2022-10-12T00:08:48.677Z,6.92
2022-10-12T00:11:20.370Z,6.92
2022-10-12T00:13:49.681Z,6.92
2022-10-12T00:16:20.622Z,6.89
2022-10-12T00:18:52.400Z,6.87
2022-10-12T00:21:22.261Z,6.85
2022-10-12T00:23:51.706Z,6.84
2022-10-12T00:26:21.779Z,6.83
2022-10-12T00:28:56.452Z,6.79
2022-10-12T00:31:26.232Z,6.78
2022-10-12T00:33:55.331Z,6.77
2022-10-12T00:36:27.216Z,6.75
2022-10-12T00:38:56.551Z,6.73
2022-10-12T00:41:27.472Z,6.71
2022-10-12T00:43:58.596Z,6.70
2022-10-12T00:46:33.138Z,6.69
2022-10-12T00:49:10.037Z,6.66
2022-10-12T00:51:38.111Z,6.63
2022-10-12T00:54:14.050Z,6.60
2022-10-12T00:56:46.864Z,6.58
2022-10-12T00:59:22.678Z,6.56
2022-10-12T01:01:51.768Z,6.54
2022-10-12T01:04:21.531Z,6.53
2022-10-12T01:06:51.110Z,6.51
2022-10-12T01:09:21.037Z,6.50
2022-10-12T01:11:50.339Z,6.49
2022-10-12T01:14:19.804Z,6.49
2022-10-12T01:16:52.941Z,6.48
2022-10-12T01:19:40.689Z,6.47
2022-10-12T01:22:13.252Z,6.45
2022-10-12T01:24:51.634Z,6.43
2022-10-12T01:27:33.832Z,6.42
2022-10-12T01:30:11.649Z,6.40
2022-10-12T01:33:03.246Z,6.38
2022-10-12T01:35:37.981Z,6.36
2022-10-12T01:38:17.205Z,6.34
2022-10-12T01:40:55.198Z,6.33
2022-10-12T01:43:33.160Z,6.32
2022-10-12T01:46:07.713Z,6.30
2022-10-12T01:48:36.638Z,6.29
2022-10-12T01:51:05.922Z,6.28
2022-10-12T01:53:41.802Z,6.27
2022-10-12T01:56:18.081Z,6.26
2022-10-12T01:58:57.691Z,6.26
2022-10-12T02:01:35.170Z,6.25
2022-10-12T02:04:11.481Z,6.24
2022-10-12T02:06:45.081Z,6.23
2022-10-12T02:09:21.777Z,6.22
2022-10-12T02:11:54.164Z,6.21
2022-10-12T02:14:26.808Z,6.19
2022-10-12T02:16:59.098Z,6.16
2022-10-12T02:19:30.872Z,6.17
2022-10-12T02:22:04.174Z,6.18
2022-10-12T02:24:37.223Z,6.17
2022-10-12T02:27:07.307Z,6.15
2022-10-12T02:29:39.783Z,6.13
2022-10-12T02:32:16.832Z,6.12
2022-10-12T02:34:50.433Z,6.12
2022-10-12T02:37:28.304Z,6.10
2022-10-12T02:40:02.177Z,6.08
2022-10-12T02:42:46.569Z,6.08
2022-10-12T02:45:24.490Z,6.09
2022-10-12T02:47:57.445Z,6.07
2022-10-12T02:50:27.358Z,6.05
2022-10-12T02:52:57.595Z,6.03
2022-10-12T02:55:26.467Z,6.01
2022-10-12T02:57:55.279Z,5.99
2022-10-12T03:00:24.352Z,5.97
2022-10-12T03:02:53.260Z,5.95
2022-10-12T03:05:22.169Z,5.93
2022-10-12T03:07:51.727Z,5.93
2022-10-12T03:10:20.564Z,5.93
2022-10-12T03:12:50.407Z,5.92
2022-10-12T03:15:19.476Z,5.91
2022-10-12T03:17:48.150Z,5.92
2022-10-12T03:20:17.395Z,5.91
2022-10-12T03:22:46.274Z,5.90
2022-10-12T03:25:15.687Z,5.88
2022-10-12T03:27:44.719Z,5.86
2022-10-12T03:30:14.638Z,5.84
2022-10-12T03:32:43.341Z,5.83
2022-10-12T03:35:12.356Z,5.81
2022-10-12T03:37:41.265Z,5.79
2022-10-12T03:40:12.500Z,5.78
2022-10-12T03:42:41.172Z,5.76
2022-10-12T03:45:11.917Z,5.74
2022-10-12T03:47:41.298Z,5.73
2022-10-12T03:50:11.046Z,5.72
2022-10-12T03:52:40.361Z,5.71
2022-10-12T03:55:10.515Z,5.70
2022-10-12T03:57:39.834Z,5.70
2022-10-12T04:00:12.463Z,5.69
2022-10-12T04:02:41.774Z,5.68
2022-10-12T04:05:10.960Z,5.66
2022-10-12T04:07:40.536Z,5.64
2022-10-12T04:10:10.907Z,5.64
2022-10-12T04:12:40.104Z,5.62
2022-10-12T04:15:11.246Z,5.60
2022-10-12T04:17:40.604Z,5.59
2022-10-12T04:20:12.510Z,5.58
2022-10-12T04:22:41.767Z,5.58
2022-10-12T04:25:12.483Z,5.57
2022-10-12T04:27:41.329Z,5.58
2022-10-12T04:30:12.848Z,5.57
2022-10-12T04:32:41.482Z,5.56
2022-10-12T04:35:10.821Z,5.55
2022-10-12T04:37:39.683Z,5.55
2022-10-12T04:40:10.561Z,5.56
2022-10-12T04:42:39.145Z,5.56
2022-10-12T04:45:09.817Z,5.56
2022-10-12T04:47:38.928Z,5.56
2022-10-12T04:50:09.180Z,5.56
2022-10-12T04:52:37.813Z,5.55
2022-10-12T04:55:08.889Z,5.55
2022-10-12T04:57:37.954Z,5.54
2022-10-12T05:00:09.613Z,5.55
2022-10-12T05:02:38.298Z,5.55
2022-10-12T05:05:08.228Z,5.55
2022-10-12T05:07:37.135Z,5.56
2022-10-12T05:10:08.195Z,5.57
2022-10-12T05:12:37.076Z,5.58
2022-10-12T05:15:08.127Z,5.61
2022-10-12T05:17:36.975Z,5.64
2022-10-12T05:20:09.180Z,5.70
2022-10-12T05:22:37.973Z,5.77
2022-10-12T05:25:09.148Z,5.83
2022-10-12T05:27:38.051Z,5.91
2022-10-12T05:30:09.285Z,6.00
2022-10-12T05:32:38.369Z,6.12
2022-10-12T05:35:08.962Z,6.24
2022-10-12T05:37:37.832Z,6.37
2022-10-12T05:40:08.429Z,6.51
2022-10-12T05:42:37.345Z,6.66
2022-10-12T05:45:08.022Z,6.80
2022-10-12T05:47:37.079Z,6.95
2022-10-12T05:50:08.162Z,7.11
2022-10-12T05:52:37.303Z,7.28
2022-10-12T05:55:08.402Z,7.45
2022-10-12T05:57:37.345Z,7.65
2022-10-12T06:00:09.243Z,7.85
2022-10-12T06:02:41.144Z,8.08
2022-10-12T06:05:10.116Z,8.29
2022-10-12T06:07:38.900Z,8.48
2022-10-12T06:10:09.490Z,8.67
2022-10-12T06:12:38.661Z,8.91
2022-10-12T06:15:10.338Z,9.22
2022-10-12T06:17:38.932Z,9.60
2022-10-12T06:20:09.601Z,10.02
2022-10-12T06:22:38.912Z,10.52
2022-10-12T06:25:08.994Z,11.15
2022-10-12T06:27:37.741Z,11.76
2022-10-12T06:30:08.272Z,12.23
2022-10-12T06:32:37.239Z,12.58
2022-10-12T06:35:09.646Z,12.98
2022-10-12T06:37:49.645Z,13.49
2022-10-12T06:40:19.208Z,14.26
2022-10-12T06:42:49.355Z,15.08
2022-10-12T06:45:18.534Z,15.93
2022-10-12T06:47:47.927Z,16.51
2022-10-12T06:50:16.822Z,17.00
2022-10-12T06:52:47.082Z,17.50
2022-10-12T06:55:21.658Z,17.91
2022-10-12T06:57:51.347Z,18.10
2022-10-12T07:00:20.222Z,18.22
2022-10-12T07:02:51.221Z,18.47
2022-10-12T07:05:20.893Z,18.88
2022-10-12T07:07:49.739Z,19.27
2022-10-12T07:10:18.654Z,19.71
2022-10-12T07:12:48.217Z,19.97
2022-10-12T07:15:17.135Z,20.13
2022-10-12T07:17:45.804Z,20.47
2022-10-12T07:20:14.612Z,20.80
2022-10-12T07:22:44.340Z,21.12
2022-10-12T07:25:13.155Z,21.52
2022-10-12T07:27:42.044Z,21.78
2022-10-12T07:30:13.386Z,22.12
2022-10-12T07:32:43.919Z,22.52
2022-10-12T07:35:12.636Z,22.78
2022-10-12T07:37:41.714Z,23.07
2022-10-12T07:40:11.455Z,23.35
2022-10-12T07:42:59.199Z,23.58
2022-10-12T07:45:28.927Z,23.75
2022-10-12T07:47:57.575Z,23.89
2022-10-12T07:50:26.254Z,24.03
2022-10-12T07:52:55.038Z,24.25
2022-10-12T07:55:24.011Z,24.40
2022-10-12T07:57:52.626Z,24.66
2022-10-12T08:00:21.648Z,25.04
2022-10-12T08:02:50.446Z,25.22
2022-10-12T08:05:20.611Z,25.47
2022-10-12T08:07:49.924Z,25.77
2022-10-12T08:10:19.552Z,26.12
2022-10-12T08:12:51.882Z,26.31
2022-10-12T08:15:21.232Z,26.39
2022-10-12T08:17:50.441Z,26.45
2022-10-12T08:20:19.203Z,26.53
2022-10-12T08:22:47.807Z,26.76
2022-10-12T08:25:16.768Z,26.86
2022-10-12T08:27:45.768Z,27.02
2022-10-12T08:30:14.978Z,27.34
2022-10-12T08:32:43.668Z,27.45
2022-10-12T08:35:12.350Z,27.41
2022-10-12T08:37:41.174Z,27.29
2022-10-12T08:40:16.785Z,27.40
2022-10-12T08:42:55.411Z,27.47
2022-10-12T08:45:37.363Z,27.48
2022-10-12T08:48:12.092Z,27.38
2022-10-12T08:50:47.641Z,27.34
2022-10-12T08:53:22.653Z,27.37
2022-10-12T08:55:52.134Z,27.14
2022-10-12T08:58:23.682Z,27.04
2022-10-12T09:00:55.221Z,26.90
2022-10-12T09:03:42.541Z,26.43
2022-10-12T09:06:18.627Z,26.25
2022-10-12T09:09:00.855Z,26.18
2022-10-12T09:11:50.160Z,26.33
2022-10-12T09:14:23.296Z,26.29
2022-10-12T09:16:55.189Z,26.21
2022-10-12T09:19:32.712Z,26.09
2022-10-12T09:22:04.491Z,25.86
2022-10-12T09:24:38.657Z,25.84
2022-10-12T09:27:15.267Z,25.87
2022-10-12T09:29:48.701Z,25.90
2022-10-12T09:32:43.515Z,25.92
2022-10-12T09:35:14.059Z,25.90
2022-10-12T09:37:46.571Z,26.00
2022-10-12T09:40:21.412Z,26.20
2022-10-12T09:42:51.004Z,26.40
2022-10-12T09:45:21.667Z,26.41
2022-10-12T09:48:13.478Z,26.42
2022-10-12T09:50:45.634Z,26.28
2022-10-12T09:53:20.585Z,26.03
2022-10-12T09:55:56.003Z,25.83
2022-10-12T09:58:27.460Z,25.64
2022-10-12T10:01:30.095Z,25.60
2022-10-12T10:04:13.084Z,25.38
2022-10-12T10:06:44.427Z,25.17
2022-10-12T10:09:31.644Z,25.05
2022-10-12T10:12:13.112Z,24.71
2022-10-12T10:14:44.485Z,24.59
2022-10-12T10:17:17.283Z,24.66
2022-10-12T10:19:51.027Z,24.54
2022-10-12T10:22:21.084Z,24.50
2022-10-12T10:24:54.287Z,24.61
2022-10-12T10:27:29.434Z,24.61
2022-10-12T10:30:32.583Z,24.54
2022-10-12T10:33:16.874Z,24.31
2022-10-12T10:35:59.518Z,24.10
2022-10-12T10:38:30.538Z,23.85
2022-10-12T10:41:02.510Z,23.66
2022-10-12T10:43:32.283Z,23.55
2022-10-12T10:46:03.455Z,23.48
2022-10-12T10:48:41.466Z,23.30
2022-10-12T10:51:10.319Z,23.18
2022-10-12T10:53:45.950Z,23.18
2022-10-12T10:56:20.497Z,23.03
2022-10-12T10:58:52.158Z,22.80
2022-10-12T11:01:29.509Z,22.80
2022-10-12T11:04:02.779Z,22.75
2022-10-12T11:06:40.424Z,22.54
2022-10-12T11:09:14.635Z,22.25
2022-10-12T11:11:45.704Z,21.83
2022-10-12T11:14:18.053Z,21.38
2022-10-12T11:16:52.614Z,21.06
2022-10-12T11:19:30.327Z,20.85
2022-10-12T11:22:03.825Z,20.77
2022-10-12T11:24:40.347Z,20.68
2022-10-12T11:27:14.383Z,20.48
2022-10-12T11:29:43.383Z,20.49
2022-10-12T11:32:22.927Z,20.63
2022-10-12T11:34:55.158Z,20.77
2022-10-12T11:37:32.359Z,20.72
2022-10-12T11:40:04.259Z,20.51
2022-10-12T11:42:43.095Z,20.41
2022-10-12T11:45:22.235Z,20.47
2022-10-12T11:47:55.859Z,20.25
2022-10-12T11:50:32.226Z,20.12
2022-10-12T11:53:03.887Z,20.18
2022-10-12T11:55:55.163Z,20.17
2022-10-12T11:58:48.634Z,20.24
2022-10-12T12:01:34.536Z,20.37
2022-10-12T12:07:48.507Z,20.55
2022-10-12T12:10:58.989Z,20.44
2022-10-12T12:13:27.972Z,20.25
2022-10-12T12:16:30.478Z,20.27
2022-10-12T12:19:31.447Z,20.34
2022-10-12T12:22:19.550Z,20.37
2022-10-12T12:24:59.262Z,20.30
2022-10-12T12:27:38.274Z,20.11
2022-10-12T12:30:25.812Z,19.91
2022-10-12T12:32:56.514Z,19.68
2022-10-12T12:35:29.803Z,19.44
2022-10-12T12:38:16.751Z,19.20
2022-10-12T12:41:16.256Z,19.06
2022-10-12T12:44:03.393Z,19.05
2022-10-12T12:47:26.441Z,19.13
2022-10-12T12:50:00.989Z,19.18
2022-10-12T12:52:32.398Z,19.10
2022-10-12T12:55:28.848Z,18.89
2022-10-12T12:58:20.112Z,18.65
2022-10-12T13:00:59.188Z,18.44
2022-10-12T13:03:50.623Z,18.27
2022-10-12T13:07:06.964Z,18.06
2022-10-12T13:09:54.245Z,17.94
2022-10-12T13:12:27.153Z,17.97
2022-10-12T13:15:12.737Z,18.05
2022-10-12T13:17:58.327Z,18.16
2022-10-12T13:20:30.944Z,18.24
2022-10-12T13:23:02.757Z,18.30
2022-10-12T13:25:35.778Z,18.41
2022-10-12T13:28:10.208Z,18.57
2022-10-12T13:30:45.826Z,18.72
2022-10-12T13:33:32.017Z,18.86
2022-10-12T13:36:19.599Z,18.97
2022-10-12T13:38:53.921Z,18.92
2022-10-12T13:41:24.984Z,18.79
2022-10-12T13:43:56.832Z,18.64
2022-10-12T13:46:41.921Z,18.46
2022-10-12T13:49:16.757Z,18.26
2022-10-12T13:51:48.034Z,18.12
2022-10-12T13:54:21.168Z,17.98
2022-10-12T13:56:53.425Z,17.82
2022-10-12T13:59:28.223Z,17.60
2022-10-12T14:02:00.109Z,17.41
2022-10-12T14:04:30.443Z,17.23
2022-10-12T14:07:03.478Z,17.08
2022-10-12T14:09:41.152Z,16.96
2022-10-12T14:12:11.368Z,16.81
2022-10-12T14:14:42.969Z,16.65
2022-10-12T14:17:15.560Z,16.49
2022-10-12T14:19:46.232Z,16.37
2022-10-12T14:22:21.559Z,16.27
2022-10-12T14:24:52.208Z,16.19
2022-10-12T14:27:30.278Z,16.11
2022-10-12T14:30:06.568Z,16.01
2022-10-12T14:32:41.860Z,15.92
2022-10-12T14:35:21.942Z,15.82
2022-10-12T14:37:52.544Z,15.73
2022-10-12T14:40:31.940Z,15.64
2022-10-12T14:43:04.350Z,15.56
2022-10-12T14:45:33.944Z,15.50
2022-10-12T14:48:04.455Z,15.45
2022-10-12T14:50:33.840Z,15.36
2022-10-12T14:53:06.129Z,15.28
2022-10-12T14:55:35.307Z,15.22
2022-10-12T14:58:07.528Z,15.16
2022-10-12T15:00:37.612Z,15.10
2022-10-12T15:03:06.347Z,15.04
2022-10-12T15:05:36.216Z,14.99
2022-10-12T15:08:08.340Z,14.95
2022-10-12T15:10:37.971Z,14.90
2022-10-12T15:13:06.633Z,14.86
2022-10-12T15:15:39.871Z,14.82
2022-10-12T15:18:09.107Z,14.78
2022-10-12T15:20:38.973Z,14.74
2022-10-12T15:23:07.771Z,14.68
2022-10-12T15:25:45.923Z,14.64
2022-10-12T15:28:14.780Z,14.60
2022-10-12T15:31:04.636Z,14.56
2022-10-12T15:33:32.307Z,14.51
2022-10-12T15:36:01.073Z,14.47
2022-10-12T15:38:29.835Z,14.43
2022-10-12T15:40:58.526Z,14.39
2022-10-12T15:43:27.515Z,14.34
2022-10-12T15:45:58.004Z,14.28
2022-10-12T15:48:28.372Z,14.21
2022-10-12T15:50:57.131Z,14.15
2022-10-12T15:53:26.757Z,14.08
2022-10-12T15:55:55.820Z,14.01
2022-10-12T15:58:25.532Z,13.94
2022-10-12T16:00:55.793Z,13.86
2022-10-12T16:03:27.407Z,13.79
2022-10-12T16:05:56.164Z,13.76
2022-10-12T16:08:26.078Z,13.71
2022-10-12T16:10:54.998Z,13.67
2022-10-12T16:13:23.765Z,13.62
2022-10-12T16:15:52.621Z,13.58
2022-10-12T16:18:21.382Z,13.55
2022-10-12T16:20:54.030Z,13.51
2022-10-12T16:23:25.512Z,13.48
2022-10-12T16:25:54.983Z,13.45
2022-10-12T16:28:24.686Z,13.42
2022-10-12T16:30:53.956Z,13.39
2022-10-12T16:33:22.604Z,13.36
2022-10-12T16:35:51.506Z,13.33
2022-10-12T16:38:20.397Z,13.31
2022-10-12T16:40:50.043Z,13.28
2022-10-12T16:43:19.602Z,13.27
2022-10-12T16:45:56.489Z,13.27
2022-10-12T16:48:25.974Z,13.27
2022-10-12T16:50:54.909Z,13.25
2022-10-12T16:53:23.634Z,13.24
2022-10-12T16:55:52.351Z,13.23
2022-10-12T16:58:21.056Z,13.20
2022-10-12T17:00:49.824Z,13.20
2022-10-12T17:03:18.671Z,13.19
2022-10-12T17:05:47.396Z,13.17
2022-10-12T17:08:16.393Z,13.16
2022-10-12T17:10:45.541Z,13.15
2022-10-12T17:13:14.277Z,13.12
2022-10-12T17:15:43.143Z,13.10
2022-10-12T17:18:11.908Z,13.08
2022-10-12T17:20:40.599Z,13.07
2022-10-12T17:23:09.474Z,13.06
2022-10-12T17:25:38.315Z,13.06
2022-10-12T17:28:07.146Z,13.05
2022-10-12T17:30:37.977Z,13.06
2022-10-12T17:33:06.801Z,13.06
2022-10-12T17:35:40.877Z,13.05
2022-10-12T17:38:09.473Z,13.04
2022-10-12T17:40:40.072Z,12.99
2022-10-12T17:43:08.654Z,12.96
2022-10-12T17:45:39.848Z,12.94
2022-10-12T17:48:08.503Z,12.91
2022-10-12T17:50:37.612Z,12.88
2022-10-12T17:53:06.899Z,12.87
2022-10-12T17:55:48.274Z,12.86
2022-10-12T17:58:17.770Z,12.86
2022-10-12T18:00:46.541Z,12.84
2022-10-12T18:03:15.236Z,12.84
2022-10-12T18:05:43.863Z,12.82
2022-10-12T18:08:12.859Z,12.80
2022-10-12T18:10:41.555Z,12.77
2022-10-12T18:13:10.247Z,12.74
2022-10-12T18:15:43.231Z,12.71
2022-10-12T18:18:15.211Z,12.71
2022-10-12T18:20:44.272Z,12.69
2022-10-12T18:23:13.682Z,12.67
2022-10-12T18:25:43.226Z,12.66
2022-10-12T18:28:13.409Z,12.63
2022-10-12T18:30:50.637Z,12.61
2022-10-12T18:33:19.428Z,12.58
2022-10-12T18:35:48.377Z,12.56
2022-10-12T18:38:17.269Z,12.55
2022-10-12T18:40:46.903Z,12.54
2022-10-12T18:43:15.662Z,12.54
2022-10-12T18:45:45.164Z,12.53
2022-10-12T18:48:14.557Z,12.52
2022-10-12T18:50:43.291Z,12.51
2022-10-12T18:53:12.530Z,12.52
2022-10-12T18:55:41.281Z,12.53
2022-10-12T18:58:10.008Z,12.54
2022-10-12T19:00:40.985Z,12.53
2022-10-12T19:03:17.820Z,12.52
2022-10-12T19:05:45.698Z,12.48
2022-10-12T19:08:14.449Z,12.44
2022-10-12T19:10:43.112Z,12.41
2022-10-12T19:13:12.075Z,12.39
2022-10-12T19:15:40.855Z,12.39
2022-10-12T19:18:09.529Z,12.37
2022-10-12T19:20:38.308Z,12.35
2022-10-12T19:23:07.035Z,12.35
2022-10-12T19:25:38.328Z,12.34
2022-10-12T19:28:08.723Z,12.32
2022-10-12T19:30:39.129Z,12.30
2022-10-12T19:33:07.936Z,12.29
2022-10-12T19:35:40.295Z,12.29
2022-10-12T19:38:09.042Z,12.27
2022-10-12T19:40:37.757Z,12.23
2022-10-12T19:43:07.353Z,12.20
2022-10-12T19:45:39.533Z,12.17
2022-10-12T19:48:09.297Z,12.13
2022-10-12T19:50:37.974Z,12.10
2022-10-12T19:53:06.855Z,12.07
2022-10-12T19:55:38.788Z,12.05
2022-10-12T19:58:08.006Z,12.04
2022-10-12T20:00:37.626Z,12.04
2022-10-12T20:03:07.096Z,12.01
2022-10-12T20:05:37.028Z,11.98
2022-10-12T20:08:06.076Z,11.97
2022-10-12T20:10:37.619Z,11.96
2022-10-12T20:13:06.560Z,11.96
2022-10-12T20:15:35.351Z,11.96
2022-10-12T20:18:04.658Z,11.95
2022-10-12T20:20:34.089Z,11.93
2022-10-12T20:23:02.740Z,11.91
2022-10-12T20:25:31.082Z,11.89
2022-10-12T20:28:02.278Z,11.85
2022-10-12T20:30:31.263Z,11.82
2022-10-12T20:33:00.547Z,11.80
2022-10-12T20:35:29.379Z,11.79
2022-10-12T20:37:58.063Z,11.77
2022-10-12T20:40:27.358Z,11.76
2022-10-12T20:42:57.234Z,11.77
2022-10-12T20:45:25.895Z,11.78
2022-10-12T20:47:54.661Z,11.79
2022-10-12T20:50:23.825Z,11.78
2022-10-12T20:52:56.080Z,11.78
2022-10-12T20:55:25.256Z,11.77
2022-10-12T20:57:54.063Z,11.75
2022-10-12T21:00:23.158Z,11.73
2022-10-12T21:02:52.278Z,11.71
2022-10-12T21:05:21.354Z,11.64
2022-10-12T21:07:50.175Z,11.56
2022-10-12T21:10:18.864Z,11.50
2022-10-12T21:12:47.575Z,11.46
2022-10-12T21:15:16.956Z,11.43
2022-10-12T21:17:46.000Z,11.39
2022-10-12T21:20:15.094Z,11.35
2022-10-12T21:22:46.065Z,11.29
2022-10-12T21:25:14.960Z,11.26
2022-10-12T21:27:44.004Z,11.24
2022-10-12T21:30:13.662Z,11.23
2022-10-12T21:32:42.387Z,11.23
2022-10-12T21:35:11.306Z,11.21
2022-10-12T21:37:40.046Z,11.16
2022-10-12T21:40:11.167Z,11.09
2022-10-12T21:42:39.840Z,11.03
2022-10-12T21:45:10.088Z,10.99
2022-10-12T21:47:38.931Z,10.97
2022-10-12T21:50:09.649Z,10.96
2022-10-12T21:52:41.000Z,10.93
2022-10-12T21:55:10.220Z,10.89
2022-10-12T21:57:39.133Z,10.84
2022-10-12T22:00:10.686Z,10.79
2022-10-12T22:02:42.551Z,10.74
2022-10-12T22:05:11.267Z,10.68
2022-10-12T22:07:42.514Z,10.64
2022-10-12T22:10:11.782Z,10.58
2022-10-12T22:12:40.403Z,10.53
2022-10-12T22:15:11.223Z,10.48
2022-10-12T22:17:40.166Z,10.44
2022-10-12T22:20:11.723Z,10.41
2022-10-12T22:22:42.019Z,10.37
2022-10-12T22:25:10.805Z,10.34
2022-10-12T22:27:39.389Z,10.30
2022-10-12T22:30:09.562Z,10.27
2022-10-12T22:32:38.252Z,10.24
2022-10-12T22:35:08.573Z,10.21
2022-10-12T22:37:37.613Z,10.18
2022-10-12T22:40:09.270Z,10.16
2022-10-12T22:42:37.878Z,10.14
2022-10-12T22:45:08.672Z,10.14
2022-10-12T22:47:37.526Z,10.14
2022-10-12T22:50:08.769Z,10.15
2022-10-12T22:52:37.600Z,10.15
2022-10-12T22:55:08.613Z,10.16
2022-10-12T22:57:37.432Z,10.16
2022-10-12T23:00:08.351Z,10.16
2022-10-12T23:02:37.007Z,10.17
2022-10-12T23:05:07.256Z,10.19
2022-10-12T23:07:35.905Z,10.20
2022-10-12T23:10:05.294Z,10.20
2022-10-12T23:12:33.968Z,10.19
2022-10-12T23:15:02.687Z,10.20
2022-10-12T23:17:31.414Z,10.20
2022-10-12T23:20:00.009Z,10.20
2022-10-12T23:22:29.271Z,10.18
2022-10-12T23:24:58.102Z,10.14
2022-10-12T23:27:27.907Z,10.10
2022-10-12T23:29:56.522Z,10.04
2022-10-12T23:32:25.310Z,9.97
2022-10-12T23:34:54.035Z,9.89
2022-10-12T23:37:22.676Z,9.82
2022-10-12T23:39:51.344Z,9.73
2022-10-12T23:42:20.328Z,9.64
2022-10-12T23:44:50.719Z,9.56
2022-10-12T23:47:19.338Z,9.49
2022-10-12T23:49:48.098Z,9.42
2022-10-12T23:52:17.091Z,9.36
2022-10-12T23:54:45.917Z,9.30
2022-10-12T23:57:41.523Z,9.26
